Date,TemperatureHighF,TemperatureAvgF,TemperatureLowF,DewpointHighF,DewpointAvgF,DewpointLowF,HumidityHigh,HumidityAvg,HumidityLow,PressureMaxIn,PressureMinIn,WindSpeedMaxMPH,WindSpeedAvgMPH,GustSpeedMaxMPH,PrecipitationSumIn
2013-5-1,61,51,43,21,6,-14,37,17,8,0.00,40.00,6,4,12,0.00
2013-5-2,59,48,38,-7,-16,-36,13,7,2,0.00,40.00,10,5,21,0.00
2013-5-3,63,52,45,7,1,-25,18,13,4,0.00,40.00,10,6,14,0.00
2013-5-4,63,52,45,22,7,-2,32,16,13,0.00,40.00,8,4,17,0.00
2013-5-5,53,43,38,34,16,1,69,36,16,0.00,40.00,8,4,17,0.00
2013-5-6,42,36,31,37,26,-15,93,71,15,0.00,40.00,12,7,25,0.02
2013-5-7,46,36,30,35,20,-16,90,55,10,0.00,40.00,18,6,26,0.01
2013-5-8,48,40,33,36,25,8,72,56,30,0.00,40.00,6,3,10,0.00
2013-5-9,54,42,36,36,31,26,88,66,45,0.00,40.00,7,3,13,0.02
2013-5-10,58,48,38,38,31,-100,84,56,35,0.00,40.00,7,5,14,0.02
2013-5-11,67,55,46,32,26,21,48,34,23,0.00,40.00,7,4,13,0.00
2013-5-12,71,59,50,26,22,16,32,24,17,0.00,40.00,6,3,13,0.00
2013-5-13,75,61,52,31,24,16,36,25,18,0.00,40.00,8,3,11,0.00
2013-5-14,69,59,53,25,15,-12,30,19,6,0.00,40.00,12,8,26,0.00
2013-5-15,71,59,53,28,7,-9,25,14,7,0.00,40.00,7,4,16,0.00
2013-5-16,67,51,50,33,-6,-100,28,16,6,0.00,40.00,8,5,25,0.00
2013-5-17,58,49,45,35,19,-100,54,36,17,0.00,40.00,8,5,26,0.00
2013-5-18,62,52,45,36,20,-6,56,30,11,0.00,40.00,4,3,12,0.00
2013-5-19,67,56,47,38,22,-11,54,28,7,0.00,40.00,5,3,17,0.00
2013-5-20,63,52,43,26,19,10,44,28,19,0.00,40.00,5,3,11,0.00
2013-5-21,70,58,47,29,18,-13,30,21,7,0.00,40.00,7,3,20,0.00
2013-5-22,66,55,50,16,1,-18,21,12,5,0.00,40.00,10,7,22,0.00
2013-5-23,62,53,47,32,14,-18,38,22,5,0.00,40.00,7,4,19,0.00
2013-5-24,65,53,46,19,7,-12,21,16,7,0.00,40.00,9,4,19,0.00
2013-5-25,63,55,50,25,3,-21,28,14,4,0.00,40.00,5,4,16,0.00
2013-5-26,64,55,48,33,12,-9,35,19,8,0.00,40.00,5,3,14,0.00
2013-5-27,67,57,51,35,15,-5,44,22,9,0.00,40.00,5,3,13,0.00
2013-5-28,67,57,49,34,21,3,47,27,12,0.00,40.00,6,4,19,0.00
2013-5-29,67,58,49,37,17,-13,33,22,5,0.00,40.00,6,4,20,0.00
2013-5-30,72,63,56,46,24,4,49,25,10,0.00,40.00,5,3,13,0.00
2013-5-31,72,63,56,29,22,11,32,21,13,0.00,40.00,5,3,15,0.00